Time;durP1;ratioP1;P1;durP2;ratioP2;P2;SDS_P1;SDS_P2;PMS_P1;PMS_P2;Temp;Humidity;BMP_temperature;BMP_pressure;BME280_temperature;BME280_humidity;BME280_pressure;Samples;Min_cycle;Max_cycle;Signal;HPM_P1;HPM_P2
2023/10/21 00:00:24;;;;;;;;;;;;;;;19.23;100.00;99753.08;108462;1245;73075;-75
2023/10/21 00:03:13;;;;;;;;;;;;;;;19.20;100.00;99750.45;108316;1244;61994;-74
2023/10/21 00:05:42;;;;;;;;;;;;;;;19.23;100.00;99750.95;107342;1244;74176;-75
2023/10/21 00:08:11;;;;;;;;;;;;;;;19.15;100.00;99753.85;107050;1248;61249;-75
2023/10/21 00:10:40;;;;;;;;;;;;;;;19.05;100.00;99757.39;107217;1245;59968;-73
2023/10/21 00:13:08;;;;;;;;;;;;;;;19.01;100.00;99761.05;107225;1244;64736;-75
2023/10/21 00:15:37;;;;;;;;;;;;;;;18.99;100.00;99766.24;107310;1244;71558;-75
2023/10/21 00:18:05;;;;;;;;;;;;;;;18.91;100.00;99764.30;107298;1244;70366;-73
2023/10/21 00:20:34;;;;;;;;;;;;;;;18.79;100.00;99763.95;107337;1245;63417;-74
2023/10/21 00:23:03;;;;;;;;;;;;;;;18.72;100.00;99765.34;107303;1245;61102;-74
2023/10/21 00:25:32;;;;;;;;;;;;;;;18.66;100.00;99771.15;107380;1245;59600;-73
2023/10/21 00:28:00;;;;;;;;;;;;;;;18.60;100.00;99772.94;107303;1245;73467;-75
2023/10/21 00:30:29;;;;;;;;;;;;;;;18.51;100.00;99776.98;107339;1253;61009;-74
2023/10/21 00:32:58;;;;;;;;;;;;;;;18.28;100.00;99782.59;107421;1246;59481;-76
2023/10/21 00:35:26;;;;;;;;;;;;;;;18.00;100.00;99772.89;107380;1244;73083;-76
2023/10/21 00:37:55;;;;;;;;;;;;;;;17.71;100.00;99780.13;107221;1249;59716;-73
2023/10/21 00:40:23;;;;;;;;;;;;;;;17.66;100.00;99782.02;107241;1256;60269;-74
2023/10/21 00:42:54;;;;;;;;;;;;;;;17.60;100.00;99786.06;107346;1256;63395;-74
2023/10/21 00:45:22;;;;;;;;;;;;;;;17.45;100.00;99792.83;107291;1246;71305;-75
2023/10/21 00:47:51;;;;;;;;;;;;;;;17.32;100.00;99795.05;107357;1245;60132;-74
2023/10/21 00:50:20;;;;;;;;;;;;;;;17.11;100.00;99790.10;107180;1249;63024;-74
2023/10/21 00:52:48;;;;;;;;;;;;;;;17.07;100.00;99789.63;107139;1255;61885;-73
2023/10/21 00:55:18;;;;;;;;;;;;;;;16.92;100.00;99791.40;107405;1245;60474;-74
2023/10/21 00:57:46;;;;;;;;;;;;;;;16.81;100.00;99793.91;107140;1247;74296;-73
2023/10/21 01:00:16;;;;;;;;;;;;;;;16.73;100.00;99793.91;107450;1246;62088;-74
2023/10/21 01:02:46;;;;;;;;;;;;;;;16.63;100.00;99794.27;108288;1245;72746;-72
2023/10/21 01:05:15;;;;;;;;;;;;;;;16.55;100.00;99786.79;107352;1248;63096;-75
2023/10/21 01:07:44;;;;;;;;;;;;;;;16.40;100.00;99786.72;107436;1245;59584;-76
2023/10/21 01:10:13;;;;;;;;;;;;;;;16.34;100.00;99787.52;107414;1245;59576;-72
2023/10/21 01:12:41;;;;;;;;;;;;;;;16.26;100.00;99787.19;107341;1246;74224;-76
2023/10/21 01:15:11;;;;;;;;;;;;;;;16.19;100.00;99785.17;107424;1245;62052;-78
2023/10/21 01:17:40;;;;;;;;;;;;;;;16.09;100.00;99783.98;107147;1251;70201;-72
2023/10/21 01:20:10;;;;;;;;;;;;;;;16.00;100.00;99790.92;107383;1245;73498;-72
2023/10/21 01:22:38;;;;;;;;;;;;;;;15.95;100.00;99794.78;107368;1248;63167;-72
2023/10/21 01:25:08;;;;;;;;;;;;;;;15.87;100.00;99797.06;107377;1255;61226;-74
2023/10/21 01:27:37;;;;;;;;;;;;;;;15.79;100.00;99795.13;107412;1244;74833;-71
2023/10/21 01:30:06;;;;;;;;;;;;;;;15.73;100.00;99796.48;107370;1241;71798;-72
2023/10/21 01:32:35;;;;;;;;;;;;;;;15.68;100.00;99798.34;107354;1252;59516;-72
2023/10/21 01:35:06;;;;;;;;;;;;;;;15.60;100.00;99798.23;107336;1245;74828;-72
2023/10/21 01:37:34;;;;;;;;;;;;;;;15.53;100.00;99803.94;107311;1246;63443;-73
2023/10/21 01:40:04;;;;;;;;;;;;;;;15.45;100.00;99811.44;107316;1248;60653;-73
2023/10/21 01:42:34;;;;;;;;;;;;;;;15.37;100.00;99811.95;107327;1255;73894;-73
2023/10/21 01:45:04;;;;;;;;;;;;;;;15.31;100.00;99815.23;107308;1251;72586;-73
2023/10/21 01:47:32;;;;;;;;;;;;;;;15.24;100.00;99817.86;107304;1253;61089;-73
2023/10/21 01:50:07;;;;;;;;;;;;;;;15.15;100.00;99819.23;107356;1255;73668;-74
2023/10/21 01:52:36;;;;;;;;;;;;;;;15.10;100.00;99820.77;107386;1255;62958;-76
2023/10/21 01:55:06;;;;;;;;;;;;;;;15.05;100.00;99820.95;107381;1252;57877;-75
2023/10/21 01:57:35;;;;;;;;;;;;;;;14.99;100.00;99823.64;107242;1251;74106;-73
2023/10/21 02:00:08;;;;;;;;;;;;;;;14.93;100.00;99821.84;107189;1245;71905;-72
2023/10/21 02:02:40;;;;;;;;;;;;;;;14.88;100.00;99823.77;107340;1245;60744;-74
2023/10/21 02:05:09;;;;;;;;;;;;;;;14.81;100.00;99822.92;107269;1246;73622;-73
2023/10/21 02:07:38;;;;;;;;;;;;;;;14.77;100.00;99824.92;107200;1255;59085;-74
2023/10/21 02:10:08;;;;;;;;;;;;;;;14.75;100.00;99827.28;107321;1247;60858;-75
2023/10/21 02:12:37;;;;;;;;;;;;;;;14.71;100.00;99829.62;107425;1254;64008;-70
2023/10/21 02:15:11;;;;;;;;;;;;;;;14.67;100.00;99829.08;107255;1241;61832;-72
2023/10/21 02:17:44;;;;;;;;;;;;;;;14.66;100.00;99829.42;107244;1246;70182;-71
2023/10/21 02:20:14;;;;;;;;;;;;;;;14.63;100.00;99828.51;107231;1253;63213;-80
2023/10/21 02:22:43;;;;;;;;;;;;;;;14.59;100.00;99834.48;107364;1245;62088;-79
2023/10/21 02:25:13;;;;;;;;;;;;;;;14.60;100.00;99837.21;107357;1255;61359;-73
2023/10/21 02:27:43;;;;;;;;;;;;;;;14.57;100.00;99835.20;107364;1251;74084;-72
2023/10/21 02:30:15;;;;;;;;;;;;;;;14.52;100.00;99838.20;107387;1255;73210;-71
2023/10/21 02:32:45;;;;;;;;;;;;;;;14.46;100.00;99836.66;107306;1255;59761;-73
2023/10/21 02:35:15;;;;;;;;;;;;;;;14.41;100.00;99834.95;107340;1246;73463;-80
2023/10/21 02:37:44;;;;;;;;;;;;;;;14.35;100.00;99830.76;107325;1252;59623;-77
2023/10/21 02:40:15;;;;;;;;;;;;;;;14.33;100.00;99832.92;107424;1245;60892;-79
2023/10/21 02:42:45;;;;;;;;;;;;;;;14.32;100.00;99835.48;107368;1252;63561;-78
2023/10/21 02:45:14;;;;;;;;;;;;;;;14.43;100.00;99837.14;107482;1246;61393;-76
2023/10/21 02:47:42;;;;;;;;;;;;;;;14.48;100.00;99843.40;107434;1252;69675;-74
2023/10/21 02:50:11;;;;;;;;;;;;;;;14.47;100.00;99845.20;107327;1253;72277;-75
2023/10/21 02:52:40;;;;;;;;;;;;;;;14.44;100.00;99847.06;107371;1246;59612;-75
2023/10/21 02:55:11;;;;;;;;;;;;;;;14.38;100.00;99849.25;107393;1245;59398;-75
2023/10/21 02:57:41;;;;;;;;;;;;;;;14.32;100.00;99850.58;107357;1253;63609;-74
2023/10/21 03:00:15;;;;;;;;;;;;;;;14.25;100.00;99854.89;107347;1245;69979;-75
2023/10/21 03:02:44;;;;;;;;;;;;;;;14.15;100.00;99852.60;107230;1255;59586;-73
2023/10/21 03:05:13;;;;;;;;;;;;;;;14.10;100.00;99854.92;107461;1242;72964;-76
2023/10/21 03:07:43;;;;;;;;;;;;;;;14.03;100.00;99860.33;107322;1246;61939;-75
2023/10/21 03:10:12;;;;;;;;;;;;;;;13.96;100.00;99861.20;107285;1256;59018;-73
2023/10/21 03:12:41;;;;;;;;;;;;;;;13.90;100.00;99863.39;107428;1255;62830;-73
2023/10/21 03:15:12;;;;;;;;;;;;;;;13.80;100.00;99855.64;107279;1248;72034;-74
2023/10/21 03:17:42;;;;;;;;;;;;;;;13.78;100.00;99870.11;107429;1245;60884;-73
2023/10/21 03:20:12;;;;;;;;;;;;;;;13.71;100.00;99872.58;107975;1244;73787;-73
2023/10/21 03:22:40;;;;;;;;;;;;;;;13.68;100.00;99872.73;109517;1245;63090;-74
2023/10/21 03:25:09;;;;;;;;;;;;;;;13.64;100.00;99873.32;109495;1241;58262;-75
2023/10/21 03:27:40;;;;;;;;;;;;;;;13.56;100.00;99876.33;109322;1244;64362;-73
2023/10/21 03:30:09;;;;;;;;;;;;;;;13.51;100.00;99877.89;109445;1245;72657;-75
2023/10/21 03:32:38;;;;;;;;;;;;;;;13.47;100.00;99878.25;109731;1241;70797;-78
2023/10/21 03:35:07;;;;;;;;;;;;;;;13.43;100.00;99880.40;109715;1241;73456;-74
2023/10/21 03:37:35;;;;;;;;;;;;;;;13.39;100.00;99879.71;109613;1242;63272;-76
2023/10/21 03:40:05;;;;;;;;;;;;;;;13.35;100.00;99876.63;109699;1241;58233;-75
2023/10/21 03:42:34;;;;;;;;;;;;;;;13.31;100.00;99881.56;109647;1241;64832;-75
2023/10/21 03:45:04;;;;;;;;;;;;;;;13.27;100.00;99879.38;109666;1241;71298;-75
2023/10/21 03:47:34;;;;;;;;;;;;;;;13.20;100.00;99877.85;109619;1241;70987;-75
2023/10/21 03:50:03;;;;;;;;;;;;;;;13.16;100.00;99879.70;109718;1241;73164;-75
2023/10/21 03:52:31;;;;;;;;;;;;;;;13.12;100.00;99879.86;109592;1245;61693;-75
2023/10/21 03:55:00;;;;;;;;;;;;;;;13.09;100.00;99880.56;109712;1242;60029;-75
2023/10/21 03:57:28;;;;;;;;;;;;;;;13.04;100.00;99885.10;109661;1241;74781;-73
2023/10/21 03:59:59;;;;;;;;;;;;;;;12.98;100.00;99888.38;109671;1241;61942;-73
2023/10/21 04:02:28;;;;;;;;;;;;;;;12.94;100.00;99891.58;109741;1241;70310;-73
2023/10/21 04:04:57;;;;;;;;;;;;;;;12.90;100.00;99895.56;109708;1241;63367;-74
2023/10/21 04:07:25;;;;;;;;;;;;;;;12.84;100.00;99901.78;109671;1244;62662;-75
2023/10/21 04:09:54;;;;;;;;;;;;;;;12.79;100.00;99902.98;109720;1244;58284;-74
2023/10/21 04:12:22;;;;;;;;;;;;;;;12.73;100.00;99899.65;109675;1241;74314;-74
2023/10/21 04:14:51;;;;;;;;;;;;;;;12.71;100.00;99894.61;109687;1241;61310;-76
2023/10/21 04:17:19;;;;;;;;;;;;;;;12.70;100.00;99892.06;109713;1241;69632;-74
2023/10/21 04:19:48;;;;;;;;;;;;;;;12.71;100.00;99890.09;109680;1241;62679;-74
2023/10/21 04:22:16;;;;;;;;;;;;;;;12.73;100.00;99893.35;109712;1244;60847;-75
2023/10/21 04:24:45;;;;;;;;;;;;;;;12.69;100.00;99889.73;109611;1241;58179;-76
2023/10/21 04:27:13;;;;;;;;;;;;;;;12.74;100.00;99899.23;109686;1241;74731;-76
2023/10/21 04:29:42;;;;;;;;;;;;;;;12.74;100.00;99897.26;109700;1241;61974;-75
2023/10/21 04:32:10;;;;;;;;;;;;;;;12.73;100.00;99898.08;109599;1241;70444;-75
2023/10/21 04:34:39;;;;;;;;;;;;;;;12.71;100.00;99892.20;109687;1241;63505;-74
2023/10/21 04:37:08;;;;;;;;;;;;;;;12.68;100.00;99894.86;109645;1244;62578;-73
2023/10/21 04:39:36;;;;;;;;;;;;;;;12.68;100.00;99903.61;109710;1241;59798;-75
2023/10/21 04:42:05;;;;;;;;;;;;;;;12.69;100.00;99908.79;109498;1245;63294;-74
2023/10/21 04:44:34;;;;;;;;;;;;;;;12.67;100.00;99909.55;109569;1241;71986;-75
2023/10/21 04:47:04;;;;;;;;;;;;;;;12.67;100.00;99915.29;109550;1241;70445;-74
2023/10/21 04:49:33;;;;;;;;;;;;;;;12.64;100.00;99921.82;109517;1241;62827;-74
2023/10/21 04:52:01;;;;;;;;;;;;;;;12.63;100.00;99921.77;109560;1241;63156;-74
2023/10/21 04:54:30;;;;;;;;;;;;;;;12.62;100.00;99921.30;109498;1244;58310;-74
2023/10/21 04:56:58;;;;;;;;;;;;;;;12.62;100.00;99926.58;109555;1241;74705;-74
2023/10/21 04:59:27;;;;;;;;;;;;;;;12.64;100.00;99931.65;109550;1241;61243;-74
2023/10/21 05:01:56;;;;;;;;;;;;;;;12.67;100.00;99929.02;109567;1241;70276;-73
2023/10/21 05:04:25;;;;;;;;;;;;;;;12.73;100.00;99926.02;109518;1241;74030;-77
2023/10/21 05:06:53;;;;;;;;;;;;;;;12.80;100.00;99933.66;109601;1244;63553;-73
2023/10/21 05:09:22;;;;;;;;;;;;;;;12.85;100.00;99937.31;109698;1242;57716;-73
2023/10/21 05:11:50;;;;;;;;;;;;;;;12.86;100.00;99942.10;109706;1241;74537;-73
2023/10/21 05:14:19;;;;;;;;;;;;;;;12.91;100.00;99947.45;109670;1243;61791;-73
2023/10/21 05:16:48;;;;;;;;;;;;;;;12.97;100.00;99951.09;109675;1241;69597;-73
2023/10/21 05:19:16;;;;;;;;;;;;;;;13.05;100.00;99955.94;109435;1241;74139;-73
2023/10/21 05:21:48;;;;;;;;;;;;;;;13.12;100.00;99960.52;109530;1241;58337;-73
2023/10/21 05:24:16;;;;;;;;;;;;;;;13.22;100.00;99962.14;109275;1241;391983;-72
2023/10/21 05:26:45;;;;;;;;;;;;;;;13.31;100.00;99962.72;109525;1242;64165;-73
2023/10/21 05:29:14;;;;;;;;;;;;;;;13.41;100.00;99962.43;109514;1241;72123;-73
2023/10/21 05:31:42;;;;;;;;;;;;;;;13.51;100.00;99963.88;109544;1241;70876;-74
2023/10/21 05:34:17;;;;;;;;;;;;;;;13.62;100.00;99963.73;109516;1241;63427;-76
2023/10/21 05:36:47;;;;;;;;;;;;;;;13.71;100.00;99959.33;109527;1244;62639;-79
2023/10/21 05:39:15;;;;;;;;;;;;;;;13.90;100.00;99968.54;109438;1244;60330;-80
2023/10/21 05:41:44;;;;;;;;;;;;;;;14.03;100.00;99965.72;109498;1241;64066;-80
2023/10/21 05:44:12;;;;;;;;;;;;;;;14.17;100.00;99970.06;109426;1241;72016;-82
2023/10/21 05:46:41;;;;;;;;;;;;;;;14.24;100.00;99974.97;109498;1241;60348;-72
2023/10/21 05:49:10;;;;;;;;;;;;;;;14.48;100.00;99979.30;109484;1242;73411;-84
2023/10/21 05:51:39;;;;;;;;;;;;;;;14.66;100.00;99982.27;109477;1241;62742;-65
2023/10/21 05:54:07;;;;;;;;;;;;;;;14.83;100.00;99983.45;109413;1241;61479;-62
2023/10/21 05:56:36;;;;;;;;;;;;;;;15.01;100.00;99988.93;109421;1244;64110;-62
2023/10/21 05:59:04;;;;;;;;;;;;;;;15.22;100.00;99991.61;109539;1241;71111;-63
2023/10/21 06:01:33;;;;;;;;;;;;;;;15.42;100.00;99996.35;109539;1241;59693;-63
2023/10/21 06:04:01;;;;;;;;;;;;;;;15.59;100.00;99997.89;109541;1241;72934;-63
2023/10/21 06:06:30;;;;;;;;;;;;;;;15.77;100.00;99995.98;109526;1241;63048;-63
2023/10/21 06:08:59;;;;;;;;;;;;;;;15.96;100.00;100001.35;109556;1242;57839;-63
2023/10/21 06:11:27;;;;;;;;;;;;;;;16.15;100.00;100006.14;109528;1241;73500;-65
2023/10/21 06:13:56;;;;;;;;;;;;;;;16.33;100.00;100010.03;109582;1241;61309;-63
2023/10/21 06:16:25;;;;;;;;;;;;;;;16.47;100.00;100012.04;109566;1241;70484;-63
2023/10/21 06:18:53;;;;;;;;;;;;;;;16.65;100.00;100012.09;109554;1241;74440;-61
2023/10/21 06:21:22;;;;;;;;;;;;;;;16.83;100.00;100013.94;109530;1244;58137;-63
2023/10/21 06:23:50;;;;;;;;;;;;;;;17.06;100.00;100016.89;109696;1241;60930;-69
2023/10/21 06:26:21;;;;;;;;;;;;;;;17.14;100.00;100023.84;109627;1241;74619;-70
2023/10/21 06:28:49;;;;;;;;;;;;;;;17.25;100.00;100022.73;109620;1241;71772;-70
2023/10/21 06:31:18;;;;;;;;;;;;;;;17.35;100.00;100024.40;109601;1244;60218;-69
2023/10/21 06:33:46;;;;;;;;;;;;;;;17.53;100.00;100019.61;109606;1241;73772;-70
2023/10/21 06:36:18;;;;;;;;;;;;;;;17.66;100.00;100017.08;109729;1242;58286;-69
2023/10/21 06:38:49;;;;;;;;;;;;;;;17.78;100.00;100023.14;109701;1244;58131;-68
2023/10/21 06:41:17;;;;;;;;;;;;;;;17.92;100.00;100027.02;109745;1241;74137;-70
2023/10/21 06:43:46;;;;;;;;;;;;;;;18.09;100.00;100031.86;109720;1241;61051;-70
2023/10/21 06:46:15;;;;;;;;;;;;;;;18.24;100.00;100031.67;109708;1241;69538;-69
2023/10/21 06:48:44;;;;;;;;;;;;;;;18.39;100.00;100028.99;109708;1241;63397;-70
2023/10/21 06:51:13;;;;;;;;;;;;;;;18.52;100.00;100023.00;109656;1244;60124;-70
2023/10/21 06:53:41;;;;;;;;;;;;;;;18.63;100.00;100027.77;109690;1241;60041;-70
2023/10/21 06:56:11;;;;;;;;;;;;;;;18.76;100.00;100030.63;109728;1241;64731;-69
2023/10/21 06:58:40;;;;;;;;;;;;;;;19.05;100.00;100029.23;109614;1241;72135;-71
2023/10/21 07:01:09;;;;;;;;;;;;;;;19.25;100.00;100033.82;109553;1241;71203;-70
2023/10/21 07:03:38;;;;;;;;;;;;;;;19.44;100.00;100033.09;109853;1244;62718;-66
2023/10/21 07:06:06;;;;;;;;;;;;;;;19.68;100.00;100032.32;109746;1244;61185;-64
2023/10/21 07:08:35;;;;;;;;;;;;;;;19.86;100.00;100036.71;109692;1241;57765;-67
2023/10/21 07:11:04;;;;;;;;;;;;;;;20.07;100.00;100043.29;109650;1244;62857;-67
2023/10/21 07:13:33;;;;;;;;;;;;;;;20.22;100.00;100051.36;109651;1244;60618;-67
2023/10/21 07:16:10;;;;;;;;;;;;;;;20.33;100.00;100049.80;109530;1241;69375;-66
2023/10/21 07:18:40;;;;;;;;;;;;;;;20.57;100.00;100050.42;109609;1244;62841;-67
2023/10/21 07:21:08;;;;;;;;;;;;;;;20.69;100.00;100056.52;109299;1241;60449;-65
2023/10/21 07:23:37;;;;;;;;;;;;;;;20.86;100.00;100057.48;109322;1245;57820;-66
2023/10/21 07:26:06;;;;;;;;;;;;;;;21.03;100.00;100053.55;109416;1241;72862;-65
2023/10/21 07:28:34;;;;;;;;;;;;;;;21.21;100.00;100054.85;109534;1241;72616;-66
2023/10/21 07:31:04;;;;;;;;;;;;;;;21.49;100.00;100051.26;109533;1241;70858;-66
2023/10/21 07:33:33;;;;;;;;;;;;;;;21.74;100.00;100053.84;109534;1244;63380;-66
2023/10/21 07:36:04;;;;;;;;;;;;;;;21.87;100.00;100054.84;109536;1242;60478;-65
2023/10/21 07:38:33;;;;;;;;;;;;;;;22.08;98.83;100063.58;109559;1243;57789;-66
2023/10/21 07:41:12;;;;;;;;;;;;;;;22.23;97.90;100072.86;109461;1241;74338;-66
2023/10/21 07:43:40;;;;;;;;;;;;;;;22.22;97.26;100068.56;109414;1244;62079;-66
2023/10/21 07:46:08;;;;;;;;;;;;;;;22.42;97.19;100074.84;109558;1242;70473;-66
2023/10/21 07:48:37;;;;;;;;;;;;;;;22.47;94.67;100075.15;109719;1241;64651;-68
2023/10/21 07:51:06;;;;;;;;;;;;;;;22.65;96.10;100077.85;109588;1242;58474;-66
2023/10/21 07:53:34;;;;;;;;;;;;;;;22.89;94.46;100080.73;109462;1244;60901;-65
2023/10/21 07:56:03;;;;;;;;;;;;;;;22.89;92.82;100080.12;109503;1244;63208;-64
2023/10/21 07:58:31;;;;;;;;;;;;;;;23.12;92.17;100080.19;109547;1241;72109;-66
2023/10/21 08:01:00;;;;;;;;;;;;;;;23.30;93.53;100077.48;109553;1244;59404;-66
2023/10/21 08:03:29;;;;;;;;;;;;;;;23.46;90.73;100079.98;109524;1244;73793;-65
2023/10/21 08:05:58;;;;;;;;;;;;;;;23.49;87.64;100080.79;109535;1241;61261;-64
2023/10/21 08:08:28;;;;;;;;;;;;;;;23.73;88.88;100081.05;109519;1244;60577;-65
2023/10/21 08:11:00;;;;;;;;;;;;;;;23.93;86.83;100083.00;109513;1244;74746;-66
2023/10/21 08:13:29;;;;;;;;;;;;;;;24.07;86.69;100083.06;109397;1245;62097;-67
2023/10/21 08:15:59;;;;;;;;;;;;;;;24.16;86.39;100076.44;109512;1243;59161;-66
2023/10/21 08:18:27;;;;;;;;;;;;;;;24.16;84.56;100075.36;109586;1243;72055;-66
2023/10/21 08:20:56;;;;;;;;;;;;;;;24.36;88.24;100074.56;109634;1243;58325;-66
2023/10/21 08:23:24;;;;;;;;;;;;;;;24.57;86.72;100074.98;109708;1241;59980;-66
2023/10/21 08:25:54;;;;;;;;;;;;;;;24.80;88.70;100074.54;109599;1244;64179;-66
2023/10/21 08:28:22;;;;;;;;;;;;;;;25.02;90.10;100072.09;109712;1244;61979;-66
2023/10/21 08:30:51;;;;;;;;;;;;;;;25.17;83.95;100072.78;109698;1241;59889;-66
2023/10/21 08:33:19;;;;;;;;;;;;;;;25.34;80.83;100079.34;109665;1241;72953;-66
2023/10/21 08:35:48;;;;;;;;;;;;;;;25.43;80.69;100075.42;109660;1244;58285;-66
2023/10/21 08:38:16;;;;;;;;;;;;;;;25.50;78.87;100075.48;109542;1241;60873;-66
2023/10/21 08:40:47;;;;;;;;;;;;;;;25.61;77.19;100070.05;109392;1245;63164;-66
2023/10/21 08:43:19;;;;;;;;;;;;;;;25.82;78.69;100069.90;109404;1245;63187;-66
2023/10/21 08:45:48;;;;;;;;;;;;;;;26.01;79.18;100068.37;109375;1241;62206;-65
2023/10/21 08:48:17;;;;;;;;;;;;;;;26.13;77.96;100067.96;109279;1247;72497;-65
2023/10/21 08:50:49;;;;;;;;;;;;;;;26.29;77.17;100066.70;109474;1244;58300;-65
2023/10/21 08:53:17;;;;;;;;;;;;;;;26.47;73.14;100062.45;109523;1241;60031;-66
2023/10/21 08:55:47;;;;;;;;;;;;;;;26.67;76.42;100065.23;109274;1245;63399;-70
2023/10/21 08:58:15;;;;;;;;;;;;;;;26.75;72.42;100065.42;109536;1241;72160;-67
2023/10/21 09:00:44;;;;;;;;;;;;;;;26.91;74.85;100063.75;109520;1241;59391;-68
2023/10/21 09:03:14;;;;;;;;;;;;;;;26.98;75.59;100067.41;109554;1241;63744;-68
2023/10/21 09:06:17;;;;;;;;;;;;;;;26.91;69.13;100069.36;109544;1242;61651;-68
2023/10/21 09:08:50;;;;;;;;;;;;;;;27.01;69.39;100067.41;109503;1241;58324;-66
2023/10/21 09:11:20;;;;;;;;;;;;;;;27.12;68.52;100060.75;109547;1241;65438;-66
2023/10/21 09:13:52;;;;;;;;;;;;;;;27.33;70.23;100061.27;109344;1241;61181;-68
2023/10/21 09:16:31;;;;;;;;;;;;;;;27.52;72.57;100061.34;109580;1241;61742;-63
2023/10/21 09:19:03;;;;;;;;;;;;;;;27.64;71.05;100066.90;109550;1241;62839;-63
2023/10/21 09:21:45;;;;;;;;;;;;;;;27.77;70.80;100068.13;109699;1242;57815;-63
2023/10/21 09:24:22;;;;;;;;;;;;;;;27.88;68.49;100065.39;109721;1241;60056;-69
2023/10/21 09:26:54;;;;;;;;;;;;;;;28.08;68.41;100066.12;109601;1244;74033;-69
2023/10/21 09:29:23;;;;;;;;;;;;;;;28.10;66.54;100069.45;109714;1241;72578;-69
2023/10/21 09:31:55;;;;;;;;;;;;;;;28.19;65.81;100074.76;109740;1241;62026;-69
2023/10/21 09:34:28;;;;;;;;;;;;;;;28.19;61.31;100074.44;109713;1241;65647;-69
2023/10/21 09:36:57;;;;;;;;;;;;;;;28.22;61.28;100075.40;109715;1245;58462;-69
2023/10/21 09:39:28;;;;;;;;;;;;;;;28.37;66.01;100068.80;109790;1241;57749;-69
2023/10/21 09:41:58;;;;;;;;;;;;;;;28.44;62.29;100064.38;109761;1241;62723;-70
2023/10/21 09:44:27;;;;;;;;;;;;;;;28.59;65.19;100068.26;109761;1241;61608;-69
2023/10/21 09:46:56;;;;;;;;;;;;;;;28.71;61.89;100069.98;109771;1241;70242;-69
2023/10/21 09:49:27;;;;;;;;;;;;;;;28.82;63.25;100068.02;109535;1241;63487;-68
2023/10/21 09:52:04;;;;;;;;;;;;;;;28.77;60.17;100070.09;109515;1247;57816;-68
2023/10/21 09:55:03;;;;;;;;;;;;;;;28.84;57.61;100077.08;109634;1241;60123;-69
2023/10/21 09:57:31;;;;;;;;;;;;;;;28.78;57.66;100077.04;109506;1241;65409;-69
2023/10/21 10:00:01;;;;;;;;;;;;;;;28.98;57.59;100077.52;109786;1241;62017;-70
2023/10/21 10:02:32;;;;;;;;;;;;;;;28.98;57.11;100074.34;109742;1241;69638;-69
2023/10/21 10:05:06;;;;;;;;;;;;;;;29.01;56.86;100074.92;109655;1241;65780;-69
2023/10/21 10:07:39;;;;;;;;;;;;;;;29.18;59.40;100072.74;109520;1244;61542;-69
2023/10/21 10:10:12;;;;;;;;;;;;;;;29.18;58.66;100068.92;109729;1241;59230;-69
2023/10/21 10:13:06;;;;;;;;;;;;;;;29.28;59.27;100073.40;109636;1241;63574;-70
2023/10/21 10:15:39;;;;;;;;;;;;;;;29.59;61.09;100072.79;109733;1242;71394;-70
2023/10/21 10:18:18;;;;;;;;;;;;;;;29.68;56.40;100071.84;109741;1241;59626;-70
2023/10/21 10:20:49;;;;;;;;;;;;;;;29.93;56.75;100076.08;109650;1241;73657;-69
2023/10/21 10:23:19;;;;;;;;;;;;;;;30.27;56.75;100077.29;109746;1241;58240;-69
2023/10/21 10:25:52;;;;;;;;;;;;;;;30.27;51.42;100080.16;109698;1241;57842;-69
2023/10/21 10:28:27;;;;;;;;;;;;;;;30.52;52.14;100080.48;109725;1241;63532;-68
2023/10/21 10:30:56;;;;;;;;;;;;;;;30.69;50.52;100079.86;109692;1241;60640;-67
2023/10/21 10:33:31;;;;;;;;;;;;;;;31.11;52.24;100076.64;109702;1241;69254;-68
2023/10/21 10:36:12;;;;;;;;;;;;;;;31.42;53.29;100076.33;109667;1241;73413;-68
2023/10/21 10:38:45;;;;;;;;;;;;;;;31.61;54.30;100079.84;109662;1241;58198;-71
2023/10/21 10:41:18;;;;;;;;;;;;;;;31.64;46.10;100072.52;109591;1244;58071;-68
2023/10/21 10:43:55;;;;;;;;;;;;;;;31.64;42.81;100071.86;109652;1242;65550;-69
2023/10/21 10:46:26;;;;;;;;;;;;;;;31.85;43.44;100079.93;109609;1241;61980;-67
2023/10/21 10:48:55;;;;;;;;;;;;;;;32.26;45.68;100074.55;109718;1241;69702;-67
2023/10/21 10:51:27;;;;;;;;;;;;;;;32.54;43.50;100084.58;109822;1241;64442;-69
2023/10/21 10:54:00;;;;;;;;;;;;;;;32.31;42.81;100078.97;109794;1244;58267;-68
2023/10/21 10:56:39;;;;;;;;;;;;;;;32.12;40.91;100074.58;109763;1241;57682;-69
2023/10/21 10:59:12;;;;;;;;;;;;;;;32.76;40.44;100080.19;109508;1241;73599;-68
2023/10/21 11:01:41;;;;;;;;;;;;;;;32.46;39.55;100076.24;109514;1241;64527;-69
2023/10/21 11:04:10;;;;;;;;;;;;;;;33.33;35.63;100077.80;109659;1241;60443;-69
2023/10/21 11:06:39;;;;;;;;;;;;;;;33.59;33.91;100081.97;109646;1241;63017;-69
2023/10/21 11:09:17;;;;;;;;;;;;;;;33.83;33.30;100078.00;109752;1241;58288;-69
2023/10/21 11:11:46;;;;;;;;;;;;;;;33.94;34.78;100074.75;109669;1241;60115;-69
2023/10/21 11:14:34;;;;;;;;;;;;;;;34.23;33.33;100077.31;109685;1241;64210;-68
2023/10/21 11:17:04;;;;;;;;;;;;;;;34.50;31.91;100076.90;109730;1241;63512;-69
2023/10/21 11:19:33;;;;;;;;;;;;;;;34.63;31.60;100079.23;109668;1241;59559;-69
2023/10/21 11:22:07;;;;;;;;;;;;;;;34.52;31.91;100080.63;109683;1241;72973;-69
2023/10/21 11:24:37;;;;;;;;;;;;;;;34.50;31.87;100076.21;109780;1243;58334;-69
2023/10/21 11:27:06;;;;;;;;;;;;;;;34.56;31.97;100081.04;109807;1241;60652;-69
2023/10/21 11:29:36;;;;;;;;;;;;;;;35.08;30.33;100075.20;109793;1241;74219;-69
2023/10/21 11:32:11;;;;;;;;;;;;;;;35.04;30.32;100076.77;109788;1243;61691;-69
2023/10/21 11:34:47;;;;;;;;;;;;;;;34.91;30.59;100070.77;109700;1241;59823;-69
2023/10/21 11:37:17;;;;;;;;;;;;;;;34.95;30.68;100076.21;109727;1241;73725;-69
2023/10/21 11:39:49;;;;;;;;;;;;;;;35.03;30.46;100070.86;109750;1242;58336;-70
2023/10/21 11:42:18;;;;;;;;;;;;;;;34.95;30.46;100071.86;109526;1241;59930;-69
2023/10/21 11:44:57;;;;;;;;;;;;;;;34.95;30.00;100072.52;109486;1244;63336;-69
2023/10/21 11:47:27;;;;;;;;;;;;;;;35.12;30.38;100071.54;109628;1241;72178;-69
2023/10/21 11:49:56;;;;;;;;;;;;;;;35.33;30.34;100072.52;109600;1241;70828;-68
2023/10/21 11:52:26;;;;;;;;;;;;;;;35.64;29.53;100070.67;109676;1241;63444;-69
2023/10/21 12:40:38;;;;;;;;;;;;;;;35.97;29.15;100090.39;109604;1241;65175;-69
2023/10/21 12:45:46;;;;;;;;;;;;;;;36.03;28.82;100088.24;109648;1242;57832;-69
2023/10/21 12:48:17;;;;;;;;;;;;;;;36.02;29.00;100088.42;109557;1241;73469;-69
2023/10/21 12:50:50;;;;;;;;;;;;;;;35.91;28.66;100093.90;109695;1242;71724;-68
2023/10/21 12:53:19;;;;;;;;;;;;;;;35.94;28.67;100094.23;109709;1241;60295;-68
2023/10/21 12:55:48;;;;;;;;;;;;;;;35.95;28.67;100093.20;109669;1244;63136;-69
2023/10/21 12:58:16;;;;;;;;;;;;;;;36.02;28.37;100089.45;109620;1241;60281;-69
2023/10/21 13:00:45;;;;;;;;;;;;;;;36.04;28.73;100091.70;109704;1243;57822;-69
2023/10/21 13:03:14;;;;;;;;;;;;;;;36.08;28.59;100093.33;109731;1241;62809;-69
2023/10/21 13:05:52;;;;;;;;;;;;;;;35.98;28.88;100099.52;109670;1241;61548;-83
2023/10/21 13:08:21;;;;;;;;;;;;;;;36.07;28.96;100094.64;109704;1241;71182;-83
2023/10/21 13:10:54;;;;;;;;;;;;;;;36.27;28.93;100102.16;109717;1241;62797;-83
2023/10/21 13:13:23;;;;;;;;;;;;;;;36.64;28.32;100100.27;109425;1243;58361;-82
2023/10/21 13:15:51;;;;;;;;;;;;;;;36.65;28.54;100102.91;109669;1241;60045;-82
2023/10/21 13:18:20;;;;;;;;;;;;;;;36.67;28.72;100098.37;109709;1244;64130;-82
2023/10/21 13:20:50;;;;;;;;;;;;;;;36.63;28.64;100101.66;109681;1243;62378;-84
2023/10/21 13:23:19;;;;;;;;;;;;;;;36.79;28.91;100100.77;109595;1241;70440;-83
2023/10/21 13:25:48;;;;;;;;;;;;;;;37.14;28.90;100100.30;109697;1241;74262;-82
2023/10/21 13:28:18;;;;;;;;;;;;;;;37.38;29.24;100102.84;109622;1244;58323;-82